createdAt,value
2023-05-04T00:00:36.865Z,241.01
2023-05-04T00:03:43.368Z,236.21
2023-05-04T00:06:49.103Z,232.67
2023-05-04T00:09:58.666Z,246.21
2023-05-04T00:13:07.180Z,262.70
2023-05-04T00:16:13.732Z,224.25
2023-05-04T00:19:19.755Z,227.56
2023-05-04T00:22:26.272Z,211.42
2023-05-04T00:25:32.002Z,207.88
2023-05-04T00:28:41.124Z,200.80
2023-05-04T00:31:46.738Z,206.99
2023-05-04T00:34:53.436Z,213.44
2023-05-04T00:37:59.613Z,211.29
2023-05-04T00:41:06.074Z,215.83
2023-05-04T00:44:14.383Z,210.97
2023-05-04T00:47:21.660Z,210.02
2023-05-04T00:50:29.242Z,209.81
2023-05-04T00:53:35.787Z,208.70
2023-05-04T00:56:43.481Z,210.66
2023-05-04T00:59:52.501Z,206.92
2023-05-04T01:03:00.946Z,208.60
2023-05-04T01:06:27.704Z,204.03
2023-05-04T01:09:45.289Z,197.80
2023-05-04T01:12:59.819Z,198.40
2023-05-04T01:16:09.920Z,202.75
2023-05-04T01:19:16.822Z,206.62
2023-05-04T01:22:25.623Z,210.76
2023-05-04T01:25:42.975Z,206.54
2023-05-04T01:29:07.970Z,213.53
2023-05-04T01:32:18.386Z,220.92
2023-05-04T01:35:24.769Z,231.06
2023-05-04T01:38:34.607Z,215.88
2023-05-04T01:41:41.736Z,215.79
2023-05-04T01:44:48.300Z,211.06
2023-05-04T01:47:56.300Z,209.80
2023-05-04T01:51:02.737Z,198.17
2023-05-04T01:54:11.680Z,197.79
2023-05-04T01:57:18.170Z,213.36
2023-05-04T02:00:23.993Z,249.46
2023-05-04T02:03:31.754Z,261.52
2023-05-04T02:06:37.703Z,240.04
2023-05-04T02:09:49.606Z,203.02
2023-05-04T02:12:55.312Z,207.77
2023-05-04T02:16:02.623Z,209.10
2023-05-04T02:19:08.265Z,194.51
2023-05-04T02:22:14.948Z,195.10
2023-05-04T02:25:23.692Z,185.74
2023-05-04T02:28:30.158Z,191.77
2023-05-04T02:31:35.950Z,195.60
2023-05-04T02:34:42.368Z,200.65
2023-05-04T02:37:47.972Z,209.62
2023-05-04T02:40:58.544Z,235.53
2023-05-04T02:44:04.175Z,211.94
2023-05-04T02:47:11.609Z,197.57
2023-05-04T02:50:17.418Z,195.68
2023-05-04T02:53:23.960Z,196.84
2023-05-04T02:56:32.355Z,203.85
2023-05-04T02:59:38.804Z,225.42
2023-05-04T03:02:44.490Z,239.51
2023-05-04T03:05:51.002Z,229.60
2023-05-04T03:08:56.687Z,190.62
2023-05-04T03:12:06.594Z,175.85
2023-05-04T03:15:13.034Z,178.27
2023-05-04T03:18:19.746Z,173.94
2023-05-04T03:21:27.555Z,172.05
2023-05-04T03:24:34.077Z,168.21
2023-05-04T03:27:42.194Z,162.84
2023-05-04T03:30:48.704Z,162.79
2023-05-04T03:33:57.039Z,169.58
2023-05-04T03:37:03.906Z,174.11
2023-05-04T03:40:11.323Z,164.56
2023-05-04T03:43:21.737Z,165.43
2023-05-04T03:46:27.791Z,169.67
2023-05-04T03:49:35.233Z,165.23
2023-05-04T03:52:40.897Z,188.32
2023-05-04T03:55:47.865Z,197.16
2023-05-04T03:58:56.147Z,211.52
2023-05-04T04:02:06.726Z,198.80
2023-05-04T04:05:12.927Z,189.11
2023-05-04T04:08:19.641Z,192.13
2023-05-04T04:11:27.212Z,194.60
2023-05-04T04:14:36.312Z,181.24
2023-05-04T04:17:41.879Z,170.56
2023-05-04T04:20:48.969Z,174.70
2023-05-04T04:23:54.560Z,167.11
2023-05-04T04:27:01.085Z,172.58
2023-05-04T04:30:14.260Z,169.75
2023-05-04T04:33:20.620Z,172.62
2023-05-04T04:36:26.130Z,167.76
2023-05-04T04:39:33.059Z,169.05
2023-05-04T04:42:42.134Z,169.38
2023-05-04T04:45:54.173Z,170.15
2023-05-04T04:48:59.722Z,181.41
2023-05-04T04:52:06.755Z,166.71
2023-05-04T04:55:13.436Z,167.53
2023-05-04T04:58:22.205Z,170.72
2023-05-04T05:01:30.533Z,163.16
2023-05-04T05:04:37.131Z,156.98
2023-05-04T05:07:42.927Z,160.20
2023-05-04T05:10:49.319Z,151.87
2023-05-04T05:13:54.920Z,144.33
2023-05-04T05:17:04.996Z,145.96
2023-05-04T05:20:12.865Z,169.95
2023-05-04T05:23:19.632Z,137.45
2023-05-04T05:26:25.255Z,135.90
2023-05-04T05:29:31.923Z,137.51
2023-05-04T05:32:40.315Z,132.77
2023-05-04T05:35:47.067Z,120.56
2023-05-04T05:38:53.179Z,101.69
2023-05-04T05:42:00.557Z,134.04
2023-05-04T05:45:06.295Z,95.56
2023-05-04T05:48:15.351Z,91.08
2023-05-04T05:51:21.214Z,98.65
2023-05-04T05:54:28.193Z,92.98
2023-05-04T05:57:33.806Z,91.38
2023-05-04T06:00:40.199Z,114.19
2023-05-04T06:03:48.532Z,102.41
2023-05-04T06:06:55.460Z,83.03
2023-05-04T06:10:01.204Z,88.75
2023-05-04T06:13:07.696Z,81.63
2023-05-04T06:16:13.515Z,76.15
2023-05-04T06:19:22.735Z,70.29
2023-05-04T06:22:28.474Z,79.19
2023-05-04T06:25:34.872Z,85.61
2023-05-04T06:28:40.597Z,87.41
2023-05-04T06:31:52.950Z,73.44
2023-05-04T06:35:02.897Z,92.86
2023-05-04T06:38:09.374Z,94.40
2023-05-04T06:41:15.027Z,97.71
2023-05-04T06:44:21.933Z,108.03
2023-05-04T06:47:27.756Z,107.84
2023-05-04T06:50:36.836Z,81.93
2023-05-04T06:53:42.591Z,51.61
2023-05-04T06:56:49.060Z,53.81
2023-05-04T06:59:54.959Z,46.45
2023-05-04T07:03:01.531Z,57.69
2023-05-04T07:06:11.347Z,39.32
2023-05-04T07:09:18.345Z,41.65
2023-05-04T07:12:23.997Z,41.10
2023-05-04T07:15:30.413Z,43.16
2023-05-04T07:18:36.063Z,34.68
2023-05-04T07:21:45.816Z,42.45
2023-05-04T07:24:52.302Z,38.11
2023-05-04T07:27:58.713Z,40.91
2023-05-04T07:31:04.477Z,39.20
2023-05-04T07:34:11.093Z,39.19
2023-05-04T07:37:19.381Z,37.04
2023-05-04T07:40:25.924Z,41.30
2023-05-04T07:43:31.681Z,41.11
2023-05-04T07:46:38.109Z,36.88
2023-05-04T07:49:43.718Z,37.58
2023-05-04T07:52:52.780Z,44.24
2023-05-04T07:56:01.064Z,40.15
2023-05-04T07:59:07.536Z,41.01
2023-05-04T08:02:13.307Z,43.77
2023-05-04T08:05:21.054Z,44.78
2023-05-04T08:08:29.401Z,44.63
2023-05-04T08:11:36.037Z,44.57
2023-05-04T08:14:42.553Z,41.30
2023-05-04T08:17:50.647Z,36.36
2023-05-04T08:20:56.781Z,35.73
2023-05-04T08:24:05.855Z,37.87
2023-05-04T08:27:12.672Z,32.50
2023-05-04T08:30:19.822Z,35.10
2023-05-04T08:33:25.518Z,32.25
2023-05-04T08:36:32.121Z,31.12
2023-05-04T08:39:41.963Z,29.59
2023-05-04T08:42:50.856Z,30.92
2023-05-04T08:45:56.768Z,29.49
2023-05-04T08:49:03.751Z,29.01
2023-05-04T08:52:13.893Z,29.30
2023-05-04T08:55:24.315Z,30.37
2023-05-04T08:58:31.208Z,28.19
2023-05-04T09:01:42.048Z,28.69
2023-05-04T09:04:48.214Z,27.24
2023-05-04T09:07:56.102Z,25.99
2023-05-04T09:11:04.967Z,30.12
2023-05-04T09:14:11.624Z,30.88
2023-05-04T09:17:26.537Z,27.79
2023-05-04T09:20:33.683Z,28.47
2023-05-04T09:23:50.031Z,28.36
2023-05-04T09:27:10.730Z,26.84
2023-05-04T09:30:16.545Z,27.62
2023-05-04T09:33:29.488Z,25.61
2023-05-04T09:36:35.094Z,26.93
2023-05-04T09:39:41.554Z,26.40
2023-05-04T09:43:01.245Z,28.53
2023-05-04T09:46:08.046Z,26.55
2023-05-04T09:49:13.960Z,26.59
2023-05-04T09:52:20.549Z,24.88
2023-05-04T09:55:29.630Z,27.47
2023-05-04T09:58:40.418Z,26.39
2023-05-04T10:01:47.672Z,27.92
2023-05-04T10:04:57.127Z,27.39
2023-05-04T10:08:04.170Z,27.23
2023-05-04T10:11:11.368Z,28.41
2023-05-04T10:14:20.800Z,28.64
2023-05-04T10:17:53.534Z,26.53
2023-05-04T10:21:32.733Z,27.36
2023-05-04T10:25:24.146Z,28.85
2023-05-04T10:28:53.885Z,28.41
2023-05-04T10:32:04.522Z,32.40
2023-05-04T10:35:12.995Z,29.65
2023-05-04T10:38:19.538Z,29.19
2023-05-04T10:41:25.100Z,30.28
2023-05-04T10:44:33.454Z,29.15
2023-05-04T10:47:42.798Z,28.80
2023-05-04T10:50:53.476Z,26.93
2023-05-04T10:54:01.611Z,25.00
2023-05-04T10:57:10.397Z,24.83
2023-05-04T11:00:18.340Z,25.11
2023-05-04T11:03:28.327Z,23.75
2023-05-04T11:06:34.252Z,24.11
2023-05-04T11:09:44.657Z,24.75
2023-05-04T11:12:50.581Z,23.23
2023-05-04T11:15:57.135Z,21.21
2023-05-04T11:19:12.843Z,21.94
2023-05-04T11:22:20.381Z,25.19
2023-05-04T11:25:32.507Z,26.64
2023-05-04T11:28:40.794Z,24.91
2023-05-04T11:31:57.893Z,25.08
2023-05-04T11:35:11.186Z,22.81
2023-05-04T11:38:22.254Z,22.34
2023-05-04T11:41:30.149Z,22.40
2023-05-04T11:44:36.539Z,24.44
2023-05-04T11:47:44.501Z,22.05
2023-05-04T11:50:55.388Z,22.32
2023-05-04T11:54:02.152Z,21.22
2023-05-04T11:57:08.270Z,22.03
2023-05-04T12:00:17.348Z,21.67
2023-05-04T12:03:39.286Z,27.53
2023-05-04T12:06:58.970Z,22.45
2023-05-04T12:10:06.195Z,27.93
2023-05-04T12:13:20.258Z,21.78
2023-05-04T12:16:28.305Z,21.23
2023-05-04T12:19:34.876Z,21.68
2023-05-04T12:22:43.066Z,21.25
2023-05-04T12:25:57.814Z,21.74
2023-05-04T12:29:04.105Z,23.86
2023-05-04T12:32:11.208Z,22.61
2023-05-04T12:35:17.280Z,23.25
2023-05-04T12:38:26.455Z,25.35
2023-05-04T12:41:32.883Z,23.88
2023-05-04T12:44:39.363Z,22.45
2023-05-04T12:47:44.957Z,22.92
2023-05-04T12:50:53.033Z,22.26
2023-05-04T12:54:01.680Z,28.56
2023-05-04T12:57:08.252Z,37.29
2023-05-04T13:00:16.293Z,21.60
2023-05-04T13:03:22.896Z,21.10
2023-05-04T13:06:30.405Z,23.05
2023-05-04T13:09:39.554Z,21.05
2023-05-04T13:12:46.257Z,22.13
2023-05-04T13:15:53.790Z,23.72
2023-05-04T13:18:59.616Z,22.80
2023-05-04T13:22:06.554Z,23.36
2023-05-04T13:25:15.267Z,21.70
2023-05-04T13:28:22.460Z,21.59
2023-05-04T13:31:28.196Z,22.03
2023-05-04T13:34:34.762Z,22.36
2023-05-04T13:37:40.868Z,20.49
2023-05-04T13:40:51.308Z,21.83
2023-05-04T13:43:57.249Z,24.95
2023-05-04T13:47:06.374Z,27.04
2023-05-04T13:50:13.111Z,28.24
2023-05-04T13:53:19.628Z,26.70
2023-05-04T13:56:27.875Z,23.76
2023-05-04T13:59:34.474Z,22.38
2023-05-04T14:02:40.310Z,25.29
2023-05-04T14:05:46.821Z,24.16
2023-05-04T14:08:52.579Z,24.22
2023-05-04T14:12:01.668Z,26.80
2023-05-04T14:15:08.859Z,25.37
2023-05-04T14:18:15.759Z,25.64
2023-05-04T14:21:21.499Z,24.45
2023-05-04T14:24:29.759Z,25.60
2023-05-04T14:27:38.302Z,25.06
2023-05-04T14:30:44.700Z,23.25
2023-05-04T14:33:50.364Z,22.60
2023-05-04T14:36:56.987Z,26.53
2023-05-04T14:40:02.724Z,24.58
2023-05-04T14:43:12.678Z,22.81
2023-05-04T14:46:18.381Z,24.87
2023-05-04T14:49:35.535Z,24.59
2023-05-04T14:52:42.921Z,46.76
2023-05-04T14:55:49.621Z,25.40
2023-05-04T14:59:01.430Z,25.35
2023-05-04T15:02:10.223Z,25.12
2023-05-04T15:05:19.742Z,27.09
2023-05-04T15:08:29.169Z,25.36
2023-05-04T15:11:34.751Z,25.01
2023-05-04T15:14:43.788Z,26.74
2023-05-04T15:17:49.442Z,28.50
2023-05-04T15:20:56.156Z,27.94
2023-05-04T15:24:02.190Z,33.92
2023-05-04T15:27:09.982Z,25.34
2023-05-04T15:30:19.085Z,28.24
2023-05-04T15:33:25.738Z,26.65
2023-05-04T15:36:31.964Z,26.62
2023-05-04T15:39:38.598Z,26.84
2023-05-04T15:42:44.343Z,27.84
2023-05-04T15:45:53.964Z,26.95
2023-05-04T15:49:01.764Z,29.32
2023-05-04T15:52:08.381Z,29.66
2023-05-04T15:55:25.222Z,31.38
2023-05-04T15:58:32.491Z,28.61
2023-05-04T16:01:40.867Z,29.34
2023-05-04T16:04:47.336Z,33.42
2023-05-04T16:07:54.027Z,31.73
2023-05-04T16:11:01.956Z,31.78
2023-05-04T16:14:07.754Z,35.30
2023-05-04T16:17:17.057Z,31.77
2023-05-04T16:20:22.625Z,35.37
2023-05-04T16:23:31.296Z,36.06
2023-05-04T16:26:36.993Z,33.97
2023-05-04T16:29:43.491Z,34.96
2023-05-04T16:32:51.819Z,35.18
2023-05-04T16:35:58.335Z,37.49
2023-05-04T16:39:03.930Z,37.48
2023-05-04T16:42:11.281Z,34.45
2023-05-04T16:45:17.470Z,35.93
2023-05-04T16:48:29.128Z,36.47
2023-05-04T16:51:34.843Z,36.16
2023-05-04T16:54:41.577Z,36.37
2023-05-04T16:57:47.109Z,39.63
2023-05-04T17:00:53.528Z,45.61
2023-05-04T17:04:04.720Z,39.51
2023-05-04T17:07:11.224Z,35.95
2023-05-04T17:10:18.427Z,38.86
2023-05-04T17:13:24.884Z,42.09
2023-05-04T17:16:30.729Z,43.58
2023-05-04T17:19:40.669Z,42.83
2023-05-04T17:22:48.027Z,43.39
2023-05-04T17:25:54.607Z,44.21
2023-05-04T17:29:00.396Z,49.09
2023-05-04T17:32:08.296Z,47.50
2023-05-04T17:35:25.459Z,48.56
2023-05-04T17:38:32.833Z,49.64
2023-05-04T17:41:38.540Z,42.22
2023-05-04T17:44:45.165Z,47.27
2023-05-04T17:47:53.102Z,46.23
2023-05-04T17:51:02.746Z,47.03
2023-05-04T17:54:08.705Z,47.71
2023-05-04T17:57:16.816Z,47.71
2023-05-04T18:00:23.923Z,50.49
2023-05-04T18:03:31.617Z,48.53
2023-05-04T18:06:39.854Z,51.98
2023-05-04T18:09:47.578Z,51.32
2023-05-04T18:12:53.279Z,56.21
2023-05-04T18:15:59.823Z,64.64
2023-05-04T18:19:06.756Z,91.73
2023-05-04T18:22:15.726Z,62.67
2023-05-04T18:25:21.480Z,61.74
2023-05-04T18:28:28.092Z,84.68
2023-05-04T18:31:34.962Z,73.81
2023-05-04T18:34:41.723Z,73.04
2023-05-04T18:37:49.960Z,75.61
2023-05-04T18:40:57.028Z,63.38
2023-05-04T18:44:02.712Z,65.71
2023-05-04T18:47:09.180Z,68.95
2023-05-04T18:50:14.928Z,66.42
2023-05-04T18:53:24.071Z,67.05
2023-05-04T18:56:30.112Z,66.75
2023-05-04T18:59:36.898Z,61.05
2023-05-04T19:02:42.699Z,60.78
2023-05-04T19:05:49.370Z,65.59
2023-05-04T19:08:57.723Z,72.11
2023-05-04T19:12:07.260Z,73.18
2023-05-04T19:15:13.562Z,78.47
2023-05-04T19:18:20.099Z,84.71
2023-05-04T19:21:25.811Z,99.88
2023-05-04T19:24:36.457Z,100.42
2023-05-04T19:27:42.326Z,85.64
2023-05-04T19:30:49.303Z,76.14
2023-05-04T19:33:55.205Z,72.02
2023-05-04T19:37:02.053Z,69.77
2023-05-04T19:40:12.038Z,67.98
2023-05-04T19:43:18.485Z,63.71
2023-05-04T19:46:24.240Z,65.02
2023-05-04T19:49:31.058Z,63.62
2023-05-04T19:52:37.519Z,64.77
2023-05-04T19:55:47.489Z,66.27
2023-05-04T19:58:53.469Z,69.01
2023-05-04T20:02:01.775Z,66.51
2023-05-04T20:05:08.181Z,73.83
2023-05-04T20:08:15.102Z,79.33
2023-05-04T20:11:25.308Z,95.19
2023-05-04T20:14:31.753Z,105.21
2023-05-04T20:17:37.521Z,101.54
2023-05-04T20:20:47.598Z,105.60
2023-05-04T20:23:54.502Z,104.71
2023-05-04T20:27:07.368Z,107.40
2023-05-04T20:30:16.692Z,105.47
2023-05-04T20:33:23.221Z,99.02
2023-05-04T20:36:29.333Z,98.48
2023-05-04T20:39:37.601Z,95.85
2023-05-04T20:42:48.984Z,91.59
2023-05-04T20:45:55.492Z,91.10
2023-05-04T20:49:03.056Z,90.34
2023-05-04T20:52:09.504Z,87.39
2023-05-04T20:55:15.276Z,88.96
2023-05-04T20:58:24.903Z,84.39
2023-05-04T21:01:30.706Z,85.34
2023-05-04T21:04:37.200Z,84.43
2023-05-04T21:07:42.836Z,85.77
2023-05-04T21:10:49.294Z,86.39
2023-05-04T21:13:57.491Z,87.02
2023-05-04T21:17:04.015Z,86.92
2023-05-04T21:20:13.476Z,83.31
2023-05-04T21:23:20.037Z,85.68
2023-05-04T21:26:25.692Z,83.43
2023-05-04T21:29:34.879Z,85.04
2023-05-04T21:32:41.574Z,87.73
2023-05-04T21:35:48.084Z,89.61
2023-05-04T21:38:55.519Z,90.98
2023-05-04T21:42:02.917Z,93.79
2023-05-04T21:45:12.566Z,97.73
2023-05-04T21:48:18.991Z,95.21
2023-05-04T21:51:24.492Z,88.98
2023-05-04T21:54:30.824Z,96.26
2023-05-04T21:57:36.433Z,97.65
2023-05-04T22:00:46.224Z,93.88
2023-05-04T22:03:53.062Z,93.65
2023-05-04T22:06:59.982Z,95.20
2023-05-04T22:10:06.333Z,95.03
2023-05-04T22:13:13.261Z,95.48
2023-05-04T22:16:21.751Z,99.36
2023-05-04T22:19:28.450Z,95.17
2023-05-04T22:22:34.176Z,97.36
2023-05-04T22:25:41.238Z,96.60
2023-05-04T22:28:48.433Z,99.91
2023-05-04T22:31:57.377Z,101.02
2023-05-04T22:35:03.520Z,106.01
2023-05-04T22:38:14.497Z,107.15
2023-05-04T22:41:20.148Z,107.53
2023-05-04T22:44:26.862Z,121.47
2023-05-04T22:47:35.132Z,133.55
2023-05-04T22:50:41.652Z,129.98
2023-05-04T22:53:47.233Z,130.03
2023-05-04T22:56:53.737Z,118.55
2023-05-04T22:59:59.375Z,111.01
2023-05-04T23:03:09.132Z,109.29
2023-05-04T23:06:15.468Z,114.69
2023-05-04T23:09:21.834Z,120.83
2023-05-04T23:12:28.429Z,113.40
2023-05-04T23:15:34.844Z,111.78
2023-05-04T23:18:45.960Z,120.27
2023-05-04T23:21:52.535Z,118.46
2023-05-04T23:24:58.157Z,120.43
2023-05-04T23:28:04.557Z,119.53
2023-05-04T23:31:10.414Z,120.18
2023-05-04T23:34:19.592Z,125.64
2023-05-04T23:37:25.810Z,128.82
2023-05-04T23:40:32.347Z,144.05
2023-05-04T23:43:37.911Z,142.00
2023-05-04T23:46:44.357Z,152.08
2023-05-04T23:49:54.633Z,159.53
2023-05-04T23:53:01.140Z,157.16
2023-05-04T23:56:09.554Z,164.75
2023-05-04T23:59:16.025Z,171.80
